96CO weather

Logan Airport
Bennet, Colorado, United States

Public forecast

Using degrees Fahrenheit for public forecast. Weather courtesy of forecast.io.

Closest aviation weather report (METAR) to Logan Airport

Closest report is Colorado Air and Space Port, 7.8 nm (14.5 km) WSW. Retrieved UTC (0 seconds ago):

Closest aviation forecast (TAF) to Logan Airport

Closest forecast is Denver International Airport, 12.8 nm (23.7 km) W. Retrieved 2019/12/10 12:27 UTC (4 hours ago):

TAF KDEN 101125Z 1012/1118 21005KT P6SM SCT150 SCT220 FM101800 32008KT P6SM SCT220 FM102300 06007KT P6SM BKN220 FM110100 15008KT P6SM BKN220 FM110400 19008KT P6SM BKN220 FM111300 23006KT P6SM BKN220